Time;durP1;ratioP1;P1;durP2;ratioP2;P2;SDS_P1;SDS_P2;PMS_P1;PMS_P2;Temp;Humidity;BMP_temperature;BMP_pressure;BME280_temperature;BME280_humidity;BME280_pressure;Samples;Min_cycle;Max_cycle;Signal;HPM_P1;HPM_P2
2023/08/04 00:00:14;;;;;;;1.17;1.00;;;19.00;99.90;;;;;;5010071;28;20854;-63
2023/08/04 00:02:40;;;;;;;1.52;0.90;;;19.00;99.90;;;;;;5012751;28;20045;-63
2023/08/04 00:05:06;;;;;;;2.33;1.42;;;19.10;99.90;;;;;;5016788;28;20029;-63
2023/08/04 00:07:36;;;;;;;2.15;0.98;;;19.10;99.90;;;;;;5010965;28;20034;-63
2023/08/04 00:10:03;;;;;;;1.35;1.23;;;19.20;99.90;;;;;;5011136;28;20029;-63
2023/08/04 00:12:30;;;;;;;2.40;1.00;;;19.20;99.90;;;;;;5008599;28;20045;-63
2023/08/04 00:14:56;;;;;;;3.35;1.27;;;19.20;99.90;;;;;;5001219;28;20722;-63
2023/08/04 00:17:22;;;;;;;2.67;1.30;;;19.30;99.90;;;;;;5004587;28;20038;-63
2023/08/04 00:19:48;;;;;;;1.70;1.38;;;19.40;99.90;;;;;;5015011;28;20037;-63
2023/08/04 00:22:13;;;;;;;4.68;1.20;;;19.40;99.90;;;;;;5013480;28;20041;-63
2023/08/04 00:24:39;;;;;;;1.10;1.00;;;19.40;99.90;;;;;;5012485;28;20034;-63
2023/08/04 00:27:05;;;;;;;1.17;1.00;;;19.40;99.90;;;;;;5011340;28;20875;-63
2023/08/04 00:29:31;;;;;;;1.17;1.08;;;19.40;99.90;;;;;;5008541;28;20172;-63
2023/08/04 00:31:56;;;;;;;1.35;1.08;;;19.40;99.90;;;;;;4999090;28;20148;-63
2023/08/04 00:34:23;;;;;;;2.17;1.40;;;19.40;99.90;;;;;;5003875;28;20040;-63
2023/08/04 00:36:49;;;;;;;2.50;1.35;;;19.40;99.90;;;;;;4997683;28;20046;-63
2023/08/04 00:39:15;;;;;;;3.60;1.60;;;19.40;99.90;;;;;;4995055;28;20044;-63
2023/08/04 00:41:41;;;;;;;3.40;1.20;;;19.30;99.90;;;;;;5011043;28;20034;-63
2023/08/04 00:44:08;;;;;;;2.67;1.35;;;19.30;99.90;;;;;;5010815;28;20036;-63
2023/08/04 00:46:35;;;;;;;4.10;1.45;;;19.30;99.90;;;;;;4986055;28;20478;-63
2023/08/04 00:49:02;;;;;;;2.53;1.30;;;19.20;99.90;;;;;;4990251;28;20033;-63
2023/08/04 00:51:30;;;;;;;5.25;1.90;;;19.20;99.90;;;;;;5006100;28;20038;-63
2023/08/04 00:53:56;;;;;;;1.92;1.23;;;19.20;99.90;;;;;;4993831;28;20482;-63
2023/08/04 00:56:22;;;;;;;4.85;1.85;;;19.20;99.90;;;;;;5012884;28;20042;-63
2023/08/04 00:58:48;;;;;;;1.70;1.50;;;19.10;99.90;;;;;;4994920;28;20108;-63
2023/08/04 01:01:14;;;;;;;8.23;1.60;;;19.10;99.90;;;;;;5010306;28;20033;-63
2023/08/04 01:03:41;;;;;;;3.13;1.20;;;19.10;99.90;;;;;;5008455;28;20029;-63
2023/08/04 01:06:18;;;;;;;2.00;1.63;;;19.10;99.90;;;;;;4992654;28;20482;-63
2023/08/04 01:08:55;;;;;;;4.72;1.25;;;19.00;99.90;;;;;;5004067;28;20639;-63
2023/08/04 01:11:24;;;;;;;1.90;1.67;;;19.10;99.90;;;;;;5008657;28;20029;-63
2023/08/04 01:13:51;;;;;;;5.18;1.85;;;19.10;99.90;;;;;;4993219;28;20030;-63
2023/08/04 01:16:17;;;;;;;5.03;1.48;;;19.20;99.90;;;;;;4993875;28;20033;-63
2023/08/04 01:18:43;;;;;;;1.50;1.30;;;19.10;99.90;;;;;;5009938;28;20501;-63
2023/08/04 01:21:09;;;;;;;2.50;1.50;;;19.20;99.90;;;;;;4991299;28;20045;-63
2023/08/04 01:23:34;;;;;;;2.33;1.38;;;19.20;99.90;;;;;;5007034;28;20133;-63
2023/08/04 01:26:02;;;;;;;2.53;1.45;;;19.20;99.90;;;;;;4988764;28;20627;-63
2023/08/04 01:28:29;;;;;;;1.52;1.40;;;19.20;99.90;;;;;;5008783;28;20041;-63
2023/08/04 01:30:57;;;;;;;5.57;1.83;;;19.20;99.90;;;;;;4996475;28;20176;-63
2023/08/04 01:33:23;;;;;;;2.85;1.73;;;19.30;99.90;;;;;;4992285;28;20034;-63
2023/08/04 01:35:52;;;;;;;5.47;2.33;;;19.30;99.90;;;;;;5011581;28;20044;-63
2023/08/04 01:38:18;;;;;;;4.97;1.85;;;19.30;99.90;;;;;;5008602;28;20125;-63
2023/08/04 01:40:44;;;;;;;5.20;1.90;;;19.30;99.90;;;;;;4990258;28;20149;-63
2023/08/04 01:43:09;;;;;;;2.75;1.92;;;19.30;99.90;;;;;;4987801;28;20068;-63
2023/08/04 01:45:35;;;;;;;3.33;1.80;;;19.30;99.90;;;;;;4986101;28;20033;-63
2023/08/04 01:48:01;;;;;;;4.68;1.80;;;19.30;99.90;;;;;;5015093;28;20803;-63
2023/08/04 01:50:27;;;;;;;6.15;2.08;;;19.30;99.90;;;;;;5010087;28;20642;-63
2023/08/04 01:52:54;;;;;;;5.47;1.92;;;19.30;99.90;;;;;;4986887;28;20044;-63
2023/08/04 01:55:20;;;;;;;2.72;1.50;;;19.30;99.90;;;;;;5006523;28;20136;-63
2023/08/04 01:57:45;;;;;;;3.47;1.95;;;19.30;99.90;;;;;;5006201;28;20117;-63
2023/08/04 02:00:13;;;;;;;4.13;2.20;;;19.30;99.90;;;;;;5002070;28;20033;-63
2023/08/04 02:02:39;;;;;;;4.55;2.03;;;19.30;99.90;;;;;;5001185;28;20843;-63
2023/08/04 02:05:06;;;;;;;5.95;1.85;;;19.30;99.90;;;;;;5006355;28;20079;-63
2023/08/04 02:07:32;;;;;;;6.97;2.42;;;19.30;99.90;;;;;;5010883;28;20188;-63
2023/08/04 02:09:58;;;;;;;6.80;2.10;;;19.40;99.90;;;;;;5005494;28;20034;-63
2023/08/04 02:12:23;;;;;;;2.33;1.63;;;19.40;99.90;;;;;;5007851;28;20045;-63
2023/08/04 02:14:49;;;;;;;3.03;1.77;;;19.30;99.90;;;;;;5008714;28;20041;-63
2023/08/04 02:17:16;;;;;;;5.32;2.38;;;19.30;99.90;;;;;;5000603;28;20167;-63
2023/08/04 02:19:42;;;;;;;4.93;2.05;;;19.30;99.90;;;;;;4987605;28;20545;-63
2023/08/04 02:22:08;;;;;;;3.88;1.80;;;19.30;99.90;;;;;;5007891;28;20063;-63
2023/08/04 02:24:33;;;;;;;6.72;2.30;;;19.30;99.90;;;;;;4993249;28;20409;-64
2023/08/04 02:26:59;;;;;;;5.28;2.25;;;19.30;99.90;;;;;;5012937;28;20422;-63
2023/08/04 02:29:25;;;;;;;3.60;1.77;;;19.30;99.90;;;;;;5008342;28;20767;-63
2023/08/04 02:31:51;;;;;;;7.13;2.30;;;19.30;99.90;;;;;;4990800;28;20041;-63
2023/08/04 02:34:17;;;;;;;3.35;1.92;;;19.30;99.90;;;;;;4987780;28;20088;-63
2023/08/04 02:36:43;;;;;;;6.38;2.30;;;19.30;99.90;;;;;;5005691;28;20042;-63
2023/08/04 02:39:09;;;;;;;5.75;2.28;;;19.30;99.90;;;;;;5007694;28;20764;-63
2023/08/04 02:41:34;;;;;;;6.15;2.33;;;19.20;99.90;;;;;;5011112;28;20034;-63
2023/08/04 02:44:02;;;;;;;7.32;2.25;;;19.20;99.90;;;;;;5004960;28;20444;-63
2023/08/04 02:46:28;;;;;;;5.22;2.28;;;19.20;99.90;;;;;;5011580;28;20045;-63
2023/08/04 02:48:55;;;;;;;4.85;2.42;;;19.20;99.90;;;;;;4991432;28;20033;-63
2023/08/04 02:51:21;;;;;;;4.35;2.45;;;19.20;99.90;;;;;;5002313;28;20581;-63
2023/08/04 02:53:48;;;;;;;5.80;2.30;;;19.20;99.90;;;;;;5005425;28;20125;-63
2023/08/04 02:56:16;;;;;;;3.50;2.45;;;19.10;99.90;;;;;;4986175;28;20450;-63
2023/08/04 02:58:43;;;;;;;6.82;2.22;;;19.10;99.90;;;;;;5011497;28;20432;-63
2023/08/04 03:01:09;;;;;;;6.18;2.17;;;19.10;99.90;;;;;;5012930;28;20037;-63
2023/08/04 03:03:35;;;;;;;6.22;2.17;;;19.00;99.90;;;;;;5012525;28;20040;-63
2023/08/04 03:06:02;;;;;;;7.25;2.25;;;19.00;99.90;;;;;;5014278;28;20030;-63
2023/08/04 03:08:28;;;;;;;3.85;2.28;;;18.90;99.90;;;;;;5012604;28;20035;-63
2023/08/04 03:10:54;;;;;;;5.10;1.85;;;18.90;99.90;;;;;;5010614;28;20026;-63
2023/08/04 03:13:21;;;;;;;3.50;2.20;;;18.80;99.90;;;;;;5007692;28;20029;-63
2023/08/04 03:15:52;;;;;;;5.55;2.47;;;18.80;99.90;;;;;;5012059;28;20618;-63
2023/08/04 03:18:18;;;;;;;8.65;2.40;;;18.70;99.90;;;;;;5015195;28;20459;-63
2023/08/04 03:20:44;;;;;;;6.65;2.35;;;18.80;99.90;;;;;;5013841;28;20066;-63
2023/08/04 03:23:10;;;;;;;4.50;2.30;;;18.70;99.90;;;;;;5011872;28;20144;-63
2023/08/04 03:25:35;;;;;;;6.55;2.60;;;18.70;99.90;;;;;;5010866;28;20160;-63
2023/08/04 03:28:01;;;;;;;5.35;2.03;;;18.80;99.90;;;;;;5010309;28;20021;-63
2023/08/04 03:30:27;;;;;;;3.78;2.15;;;18.80;99.90;;;;;;4998619;28;20042;-63
2023/08/04 03:32:53;;;;;;;6.07;2.30;;;18.80;99.90;;;;;;5004234;28;20042;-63
2023/08/04 03:35:19;;;;;;;3.80;2.47;;;18.80;99.90;;;;;;5014909;28;20161;-63
2023/08/04 03:37:44;;;;;;;5.85;2.50;;;18.90;99.90;;;;;;5013064;28;20087;-63
2023/08/04 03:40:11;;;;;;;5.43;2.63;;;18.90;99.90;;;;;;5012508;28;20076;-63
2023/08/04 03:42:38;;;;;;;5.53;2.47;;;18.90;99.90;;;;;;4991347;28;20064;-63
2023/08/04 03:45:05;;;;;;;5.45;2.33;;;18.90;99.90;;;;;;5006439;28;20095;-63
2023/08/04 03:47:30;;;;;;;6.07;2.47;;;18.90;99.90;;;;;;5009347;28;20136;-63
2023/08/04 03:49:57;;;;;;;6.50;2.63;;;18.90;99.90;;;;;;5006041;28;20075;-63
2023/08/04 03:52:23;;;;;;;3.90;2.28;;;18.90;99.90;;;;;;5014260;28;20536;-63
2023/08/04 03:54:49;;;;;;;7.72;2.35;;;19.00;99.90;;;;;;5015361;28;20513;-63
2023/08/04 03:57:14;;;;;;;5.53;2.20;;;18.90;99.90;;;;;;5012465;28;20066;-63
2023/08/04 03:59:40;;;;;;;5.30;3.05;;;18.90;99.90;;;;;;5007614;28;20070;-63
2023/08/04 04:02:06;;;;;;;3.38;2.28;;;18.90;99.90;;;;;;5010164;28;20502;-63
2023/08/04 04:04:32;;;;;;;4.07;2.10;;;18.90;99.90;;;;;;5007820;28;20922;-63
2023/08/04 04:06:58;;;;;;;9.35;2.58;;;18.90;99.90;;;;;;5006795;28;20034;-63
2023/08/04 04:09:23;;;;;;;8.80;2.92;;;18.90;99.90;;;;;;5013540;28;20041;-63
2023/08/04 04:11:49;;;;;;;5.38;2.10;;;18.90;99.90;;;;;;5014210;28;20038;-63
2023/08/04 04:14:15;;;;;;;9.10;2.40;;;18.90;99.90;;;;;;5010978;28;20467;-63
2023/08/04 04:16:40;;;;;;;5.55;2.38;;;18.90;99.90;;;;;;5004844;28;20034;-63
2023/08/04 04:19:06;;;;;;;6.65;2.58;;;18.80;99.90;;;;;;4992582;28;20561;-63
2023/08/04 04:21:32;;;;;;;5.60;2.08;;;18.80;99.90;;;;;;5007944;28;20045;-63
2023/08/04 04:23:58;;;;;;;5.38;2.47;;;18.80;99.90;;;;;;5006763;28;20502;-63
2023/08/04 04:26:24;;;;;;;6.88;2.90;;;18.80;99.90;;;;;;5009938;28;20045;-63
2023/08/04 04:28:50;;;;;;;4.85;2.53;;;18.80;99.90;;;;;;5011981;28;20080;-63
2023/08/04 04:31:15;;;;;;;2.67;2.03;;;18.80;99.90;;;;;;5012630;28;20448;-63
2023/08/04 04:33:41;;;;;;;6.72;2.67;;;18.80;99.90;;;;;;5010730;28;20084;-63
2023/08/04 04:36:07;;;;;;;11.07;2.42;;;18.80;99.90;;;;;;5010144;28;20166;-63
2023/08/04 04:38:33;;;;;;;4.93;2.10;;;18.80;99.90;;;;;;5007555;28;20411;-63
2023/08/04 04:41:03;;;;;;;5.97;2.50;;;18.70;99.90;;;;;;5001137;28;20059;-63
2023/08/04 04:43:30;;;;;;;5.40;2.45;;;18.70;99.90;;;;;;5005596;28;20446;-63
2023/08/04 04:45:56;;;;;;;7.07;2.55;;;18.60;99.90;;;;;;5014853;28;20057;-63
2023/08/04 04:48:23;;;;;;;5.28;2.45;;;18.60;99.90;;;;;;4994393;28;20510;-63
2023/08/04 04:50:52;;;;;;;4.60;2.10;;;18.60;99.90;;;;;;5012414;28;20040;-63
2023/08/04 04:53:18;;;;;;;9.63;3.35;;;18.50;99.90;;;;;;5008339;28;20057;-63
2023/08/04 04:55:44;;;;;;;6.32;3.10;;;18.50;99.90;;;;;;5008649;28;20569;-63
2023/08/04 04:58:12;;;;;;;4.70;2.72;;;18.50;99.90;;;;;;5006866;28;20567;-62
2023/08/04 05:00:38;;;;;;;5.43;2.85;;;18.50;99.90;;;;;;5002253;28;20048;-63
2023/08/04 05:03:06;;;;;;;11.82;2.97;;;18.40;99.90;;;;;;5015708;28;20033;-63
2023/08/04 05:05:32;;;;;;;6.22;2.53;;;18.40;99.90;;;;;;5010743;28;20129;-63
2023/08/04 05:07:58;;;;;;;5.55;2.65;;;18.40;99.90;;;;;;5012397;28;20044;-63
2023/08/04 05:10:25;;;;;;;8.80;2.95;;;18.40;99.90;;;;;;5009698;28;20030;-63
2023/08/04 05:12:51;;;;;;;8.02;2.80;;;18.40;99.90;;;;;;5008457;28;20128;-63
2023/08/04 05:15:17;;;;;;;6.82;2.92;;;18.40;99.90;;;;;;4991040;28;20179;-63
2023/08/04 05:17:44;;;;;;;3.28;2.42;;;18.40;99.90;;;;;;5001190;28;20065;-63
2023/08/04 05:20:11;;;;;;;6.32;2.60;;;18.40;99.90;;;;;;5012438;28;20464;-63
2023/08/04 05:22:37;;;;;;;5.80;2.42;;;18.40;99.90;;;;;;5010637;28;20030;-63
2023/08/04 05:25:04;;;;;;;5.15;2.58;;;18.40;99.90;;;;;;5006853;28;20051;-62
2023/08/04 05:27:29;;;;;;;7.10;2.72;;;18.40;99.90;;;;;;5008993;28;20052;-63
2023/08/04 05:29:55;;;;;;;8.07;2.63;;;18.40;99.90;;;;;;5006133;28;20118;-63
2023/08/04 05:32:21;;;;;;;6.28;2.78;;;18.50;99.90;;;;;;5006666;28;20034;-63
2023/08/04 05:34:47;;;;;;;4.03;2.10;;;18.50;99.90;;;;;;5006133;28;20038;-63
2023/08/04 05:37:12;;;;;;;7.82;2.25;;;18.50;99.90;;;;;;5007818;28;20037;-63
2023/08/04 05:39:38;;;;;;;6.82;2.08;;;18.60;99.90;;;;;;5011425;28;20042;-63
2023/08/04 05:42:04;;;;;;;5.25;2.58;;;18.60;99.90;;;;;;5012839;28;20698;-63
2023/08/04 05:44:30;;;;;;;6.75;2.40;;;18.60;99.90;;;;;;5008652;28;20041;-63
2023/08/04 05:46:55;;;;;;;7.78;2.85;;;18.70;99.90;;;;;;5009694;28;20069;-63
2023/08/04 05:49:21;;;;;;;5.32;2.78;;;18.70;99.90;;;;;;5007038;28;20170;-63
2023/08/04 05:51:47;;;;;;;7.22;2.92;;;18.70;99.90;;;;;;5006089;28;20041;-63
2023/08/04 05:54:13;;;;;;;5.15;2.20;;;18.80;99.90;;;;;;4988848;28;20041;-63
2023/08/04 05:56:39;;;;;;;4.88;2.70;;;18.80;99.90;;;;;;5008871;28;20034;-62
2023/08/04 05:59:04;;;;;;;6.30;2.33;;;18.90;99.90;;;;;;4989377;28;20040;-63
2023/08/04 06:01:30;;;;;;;6.00;2.55;;;19.00;99.90;;;;;;4997097;28;20034;-63
2023/08/04 06:03:56;;;;;;;5.43;2.45;;;19.00;99.90;;;;;;4998484;28;20414;-63
2023/08/04 06:06:21;;;;;;;5.10;2.40;;;19.10;99.90;;;;;;5002077;28;20030;-63
2023/08/04 06:08:47;;;;;;;5.47;2.40;;;19.10;99.90;;;;;;4997580;28;20036;-63
2023/08/04 06:11:13;;;;;;;6.43;2.42;;;19.10;99.90;;;;;;5004924;28;20045;-63
2023/08/04 06:13:40;;;;;;;5.38;2.35;;;19.20;99.90;;;;;;5012545;28;20388;-63
2023/08/04 06:16:06;;;;;;;4.45;1.95;;;19.30;99.90;;;;;;5007762;28;20076;-62
2023/08/04 06:18:32;;;;;;;5.13;1.92;;;19.30;99.90;;;;;;5003684;28;20058;-64
2023/08/04 06:20:58;;;;;;;7.93;2.03;;;19.40;99.90;;;;;;4998407;28;20034;-62
2023/08/04 06:23:24;;;;;;;4.25;1.85;;;19.40;99.90;;;;;;5007192;28;20052;-63
2023/08/04 06:25:50;;;;;;;6.68;2.10;;;19.50;99.90;;;;;;4995085;28;20041;-63
2023/08/04 06:28:15;;;;;;;6.30;2.22;;;19.50;99.90;;;;;;5001872;28;20064;-64
2023/08/04 06:30:41;;;;;;;3.92;1.92;;;19.60;99.90;;;;;;5007338;28;20454;-64
2023/08/04 06:33:07;;;;;;;9.20;2.25;;;19.70;99.90;;;;;;5013017;28;20037;-63
2023/08/04 06:35:33;;;;;;;9.55;2.30;;;19.90;99.90;;;;;;5009229;28;20092;-63
2023/08/04 06:37:59;;;;;;;4.50;2.30;;;20.00;99.90;;;;;;4995326;28;20832;-64
2023/08/04 06:40:25;;;;;;;3.53;2.00;;;20.10;99.90;;;;;;5006945;28;20029;-64
2023/08/04 06:42:53;;;;;;;4.63;2.15;;;20.20;99.90;;;;;;5006894;28;20041;-63
2023/08/04 06:45:19;;;;;;;7.10;2.40;;;20.30;99.90;;;;;;5004428;28;20065;-64
2023/08/04 06:47:44;;;;;;;5.55;2.22;;;20.40;99.90;;;;;;5005742;28;20625;-64
2023/08/04 06:50:10;;;;;;;9.52;2.35;;;20.50;99.90;;;;;;5012984;28;20042;-64
2023/08/04 06:52:36;;;;;;;4.07;2.08;;;20.60;99.90;;;;;;5009973;28;20092;-64
2023/08/04 06:55:02;;;;;;;5.30;2.15;;;20.60;99.90;;;;;;4994103;28;20041;-63
2023/08/04 06:57:28;;;;;;;6.05;3.35;;;20.60;99.90;;;;;;5004683;28;20042;-63
2023/08/04 06:59:54;;;;;;;6.75;2.38;;;20.60;99.90;;;;;;5003437;28;20037;-64
2023/08/04 07:02:19;;;;;;;6.53;2.72;;;20.70;99.90;;;;;;5005463;28;20120;-63
2023/08/04 07:04:45;;;;;;;3.25;1.80;;;20.70;99.90;;;;;;5007938;28;20113;-63
2023/08/04 07:07:11;;;;;;;9.23;2.45;;;20.70;99.90;;;;;;5014169;28;20412;-63
2023/08/04 07:09:37;;;;;;;8.00;2.15;;;20.70;99.90;;;;;;5010336;28;20049;-63
2023/08/04 07:12:03;;;;;;;4.00;2.08;;;20.70;99.90;;;;;;5004195;28;20129;-64
2023/08/04 07:14:29;;;;;;;5.22;1.75;;;20.80;99.90;;;;;;5008576;28;20030;-63
2023/08/04 07:16:54;;;;;;;5.22;1.85;;;20.90;99.90;;;;;;5002697;28;20088;-63
2023/08/04 07:19:20;;;;;;;6.18;2.20;;;20.90;99.90;;;;;;5005956;28;20084;-63
2023/08/04 07:21:46;;;;;;;6.00;2.13;;;21.10;99.90;;;;;;5004811;28;20038;-63
2023/08/04 07:24:12;;;;;;;3.78;1.90;;;21.20;99.90;;;;;;5005164;28;20052;-64
2023/08/04 07:26:38;;;;;;;5.35;2.17;;;21.30;99.90;;;;;;5010855;28;20048;-64
2023/08/04 07:29:04;;;;;;;4.50;1.90;;;21.40;99.90;;;;;;5012096;28;20028;-64
2023/08/04 07:31:31;;;;;;;4.65;2.00;;;21.40;99.90;;;;;;5007975;28;20038;-64
2023/08/04 07:33:57;;;;;;;2.22;1.70;;;21.30;99.90;;;;;;5008856;28;20731;-64
2023/08/04 07:36:23;;;;;;;3.65;1.85;;;21.20;99.90;;;;;;5006491;28;20536;-64
2023/08/04 07:38:49;;;;;;;3.20;1.92;;;21.20;99.90;;;;;;5005286;28;20045;-64
2023/08/04 07:41:23;;;;;;;6.30;2.30;;;21.10;99.90;;;;;;5006466;28;20037;-63
2023/08/04 07:43:49;;;;;;;7.75;2.10;;;21.10;99.90;;;;;;5012373;28;20057;-63
2023/08/04 07:46:28;;;;;;;5.35;2.00;;;21.10;99.90;;;;;;5010751;28;20064;-64
2023/08/04 07:48:55;;;;;;;5.22;1.88;;;21.20;99.90;;;;;;5011511;28;20030;-63
2023/08/04 07:51:22;;;;;;;4.00;2.00;;;21.20;99.90;;;;;;5010646;28;20056;-63
2023/08/04 07:53:48;;;;;;;3.65;1.88;;;21.30;99.90;;;;;;5010067;28;20088;-63
2023/08/04 07:56:14;;;;;;;7.78;1.80;;;21.40;99.90;;;;;;5008366;28;20120;-64
2023/08/04 07:58:40;;;;;;;5.05;1.90;;;21.50;99.90;;;;;;5007897;28;20125;-64
2023/08/04 08:01:06;;;;;;;6.28;1.70;;;21.50;99.90;;;;;;5013006;28;20042;-63
2023/08/04 08:03:33;;;;;;;6.78;1.88;;;21.60;99.90;;;;;;4995539;28;20038;-64
2023/08/04 08:06:00;;;;;;;3.95;1.83;;;21.70;99.90;;;;;;5010889;28;20053;-64
2023/08/04 08:08:26;;;;;;;6.05;1.90;;;21.80;99.90;;;;;;5010631;28;20060;-64
2023/08/04 08:10:52;;;;;;;7.00;1.88;;;21.80;99.90;;;;;;5010810;28;20030;-63
2023/08/04 08:13:19;;;;;;;5.38;1.58;;;21.80;99.90;;;;;;5007875;28;20049;-64
2023/08/04 08:15:44;;;;;;;6.05;1.90;;;21.80;99.90;;;;;;4990289;28;20046;-63
2023/08/04 08:18:10;;;;;;;4.97;1.70;;;21.80;99.90;;;;;;5017284;28;20037;-64
2023/08/04 08:20:40;;;;;;;4.45;1.80;;;21.80;99.90;;;;;;4995619;28;20034;-63
2023/08/04 08:23:06;;;;;;;3.63;1.48;;;21.80;99.90;;;;;;5009156;28;20512;-64
2023/08/04 08:25:33;;;;;;;3.60;2.15;;;21.90;99.90;;;;;;5010994;28;20058;-64
2023/08/04 08:27:59;;;;;;;4.20;1.52;;;21.90;99.90;;;;;;4993243;28;20037;-64
2023/08/04 08:30:25;;;;;;;2.92;1.60;;;21.90;99.90;;;;;;5008470;28;20090;-63
2023/08/04 08:32:50;;;;;;;3.83;2.10;;;21.80;99.90;;;;;;5007713;28;20453;-64
2023/08/04 08:35:16;;;;;;;4.90;2.60;;;21.90;99.90;;;;;;5004025;28;20611;-63
2023/08/04 08:37:42;;;;;;;3.30;1.70;;;22.00;99.90;;;;;;5013460;28;20037;-63
2023/08/04 08:40:09;;;;;;;3.58;1.58;;;22.00;99.90;;;;;;5013647;28;20120;-63
2023/08/04 08:42:35;;;;;;;4.22;1.40;;;22.10;99.90;;;;;;5009623;28;20597;-63
2023/08/04 08:45:01;;;;;;;2.60;1.73;;;22.10;99.90;;;;;;5004675;28;20120;-63
2023/08/04 08:47:35;;;;;;;3.67;1.42;;;22.10;99.90;;;;;;5008588;28;20754;-63
2023/08/04 08:50:03;;;;;;;3.00;1.40;;;21.90;99.60;;;;;;5007648;28;20034;-63
2023/08/04 08:52:32;;;;;;;6.53;1.38;;;21.90;99.60;;;;;;4991639;28;20760;-63
2023/08/04 08:54:59;;;;;;;4.93;1.73;;;21.80;99.90;;;;;;5016868;28;20099;-63
2023/08/04 08:57:28;;;;;;;3.78;1.67;;;21.80;99.90;;;;;;5011541;28;20048;-63
2023/08/04 08:59:57;;;;;;;5.78;1.83;;;21.80;99.90;;;;;;5011375;28;20083;-63
2023/08/04 09:02:24;;;;;;;2.50;1.42;;;21.80;99.90;;;;;;5009246;28;20030;-63
2023/08/04 09:04:50;;;;;;;5.72;1.50;;;21.80;99.90;;;;;;5009422;28;20049;-63
2023/08/04 09:07:15;;;;;;;4.60;1.35;;;21.90;99.90;;;;;;5006894;28;20778;-63
2023/08/04 09:09:41;;;;;;;3.30;1.70;;;22.00;99.90;;;;;;5006561;28;20201;-63
2023/08/04 09:12:08;;;;;;;5.57;1.70;;;22.10;99.90;;;;;;5015949;28;20041;-63
2023/08/04 09:14:53;;;;;;;3.10;1.55;;;22.30;99.90;;;;;;5010767;28;20453;-63
2023/08/04 09:17:39;;;;;;;6.18;1.80;;;22.60;98.70;;;;;;5010359;28;20072;-63
2023/08/04 09:20:07;;;;;;;4.47;1.70;;;22.50;99.00;;;;;;5007370;28;20036;-63
2023/08/04 09:22:39;;;;;;;4.90;1.67;;;22.60;98.10;;;;;;5007460;28;20091;-63
2023/08/04 09:25:05;;;;;;;6.50;1.60;;;22.50;98.70;;;;;;5006448;28;20040;-63
2023/08/04 09:27:38;;;;;;;5.45;1.85;;;22.60;99.50;;;;;;5009913;28;20703;-63
2023/08/04 09:30:08;;;;;;;3.55;1.30;;;22.70;99.30;;;;;;5008480;28;20025;-63
2023/08/04 09:32:42;;;;;;;4.72;1.23;;;22.80;97.80;;;;;;5007840;28;20030;-63
2023/08/04 09:35:08;;;;;;;4.78;1.52;;;22.80;97.70;;;;;;5008347;28;20045;-63
2023/08/04 09:37:36;;;;;;;3.25;1.52;;;22.80;98.00;;;;;;5008683;28;20033;-63
2023/08/04 09:40:04;;;;;;;3.08;1.58;;;22.70;98.20;;;;;;4995161;28;20046;-63
2023/08/04 09:42:31;;;;;;;5.25;1.52;;;22.70;98.00;;;;;;5005368;28;20463;-62
2023/08/04 09:44:57;;;;;;;5.25;1.50;;;22.70;98.90;;;;;;5008104;28;20112;-63
2023/08/04 09:47:27;;;;;;;2.50;1.25;;;22.80;98.50;;;;;;5013379;28;20089;-63
2023/08/04 09:49:54;;;;;;;3.47;1.60;;;22.80;98.40;;;;;;5013575;28;20057;-63
2023/08/04 09:52:21;;;;;;;4.47;1.90;;;22.90;98.70;;;;;;5010063;28;20042;-63
2023/08/04 09:54:48;;;;;;;6.70;1.90;;;23.00;98.70;;;;;;5010631;28;20116;-63
2023/08/04 09:57:16;;;;;;;3.35;1.30;;;23.00;98.60;;;;;;5008251;28;20842;-63
2023/08/04 09:59:42;;;;;;;4.57;1.42;;;23.00;97.60;;;;;;5003502;28;20145;-63
2023/08/04 10:02:09;;;;;;;4.22;1.35;;;23.00;96.40;;;;;;5005378;28;20034;-64
2023/08/04 10:04:36;;;;;;;6.28;1.40;;;23.00;96.20;;;;;;5012351;28;20037;-63
2023/08/04 10:07:03;;;;;;;2.40;1.25;;;23.00;96.60;;;;;;4996366;28;20516;-64
2023/08/04 10:09:31;;;;;;;2.80;1.40;;;23.00;96.50;;;;;;5009993;28;20038;-63
2023/08/04 10:11:58;;;;;;;4.03;1.23;;;22.90;96.40;;;;;;5010156;28;20041;-64
2023/08/04 10:14:24;;;;;;;2.88;1.50;;;22.90;97.50;;;;;;4989563;28;20138;-65
2023/08/04 10:16:50;;;;;;;2.47;1.20;;;22.80;99.20;;;;;;5002773;28;20120;-62
2023/08/04 10:19:18;;;;;;;2.30;1.23;;;22.80;99.20;;;;;;5005864;28;20034;-63
2023/08/04 10:21:44;;;;;;;2.95;1.40;;;22.80;99.40;;;;;;5013239;28;20116;-63
2023/08/04 10:24:13;;;;;;;3.70;1.90;;;22.70;99.00;;;;;;5013826;28;20022;-63
2023/08/04 10:27:17;;;;;;;2.92;1.50;;;22.60;99.10;;;;;;5010461;28;20046;-63
2023/08/04 10:29:43;;;;;;;2.65;1.20;;;22.50;99.40;;;;;;5009313;28;20041;-63
2023/08/04 10:32:09;;;;;;;3.35;1.50;;;22.40;99.20;;;;;;5009732;28;20041;-63
2023/08/04 10:34:43;;;;;;;5.32;1.63;;;22.40;99.70;;;;;;5004035;28;20037;-64
2023/08/04 10:37:11;;;;;;;3.53;1.83;;;22.40;99.90;;;;;;4999987;28;20044;-63
2023/08/04 10:39:58;;;;;;;3.40;1.60;;;22.50;99.90;;;;;;5008887;28;20388;-63
2023/08/04 10:42:27;;;;;;;4.43;1.45;;;22.50;99.40;;;;;;5011191;28;20038;-63
2023/08/04 10:44:55;;;;;;;5.32;1.70;;;22.60;98.40;;;;;;5013436;28;20026;-63
2023/08/04 10:47:40;;;;;;;6.35;2.08;;;22.70;98.70;;;;;;5004833;28;20030;-63
2023/08/04 10:50:07;;;;;;;3.57;1.40;;;22.80;99.00;;;;;;4999739;28;20042;-63
2023/08/04 10:52:34;;;;;;;3.85;1.40;;;23.00;98.50;;;;;;5006014;28;20363;-63
2023/08/04 10:55:01;;;;;;;3.78;1.35;;;23.10;97.40;;;;;;5004669;28;20022;-63
2023/08/04 10:57:31;;;;;;;4.28;1.60;;;23.20;97.90;;;;;;5011791;28;20076;-63
2023/08/04 10:59:57;;;;;;;5.60;1.95;;;23.30;97.80;;;;;;5007415;28;20820;-63
2023/08/04 11:02:24;;;;;;;5.30;1.67;;;23.30;98.30;;;;;;5009799;28;20365;-63
2023/08/04 11:04:52;;;;;;;3.22;2.17;;;23.30;98.20;;;;;;5008466;28;20034;-63
2023/08/04 11:07:19;;;;;;;4.05;2.17;;;23.30;98.40;;;;;;5003912;28;20502;-63
2023/08/04 11:09:45;;;;;;;7.35;1.50;;;23.30;98.30;;;;;;5007242;28;20025;-63
2023/08/04 11:12:12;;;;;;;4.20;1.63;;;23.30;98.00;;;;;;5005156;28;20030;-63
2023/08/04 11:14:38;;;;;;;5.78;1.65;;;23.30;97.20;;;;;;5008146;28;20060;-63
2023/08/04 11:17:15;;;;;;;2.15;1.35;;;23.20;97.30;;;;;;4998984;28;20034;-63
2023/08/04 11:19:45;;;;;;;5.70;1.42;;;23.10;97.70;;;;;;5001224;28;20788;-63
2023/08/04 11:22:15;;;;;;;4.30;1.52;;;23.10;98.10;;;;;;5010220;28;20033;-63
2023/08/04 11:24:42;;;;;;;3.35;1.60;;;23.00;98.10;;;;;;5011904;28;20037;-63
2023/08/04 11:27:12;;;;;;;2.55;1.52;;;23.10;97.60;;;;;;5010042;28;20034;-63
2023/08/04 11:29:38;;;;;;;3.80;1.73;;;23.10;97.40;;;;;;5000152;28;20479;-63
2023/08/04 11:32:30;;;;;;;5.50;1.98;;;23.20;97.40;;;;;;5010269;28;20642;-63
2023/08/04 11:34:57;;;;;;;7.45;2.00;;;23.30;96.60;;;;;;5005851;28;20592;-63
2023/08/04 11:37:23;;;;;;;6.80;1.60;;;23.30;96.30;;;;;;5004070;28;20129;-63
2023/08/04 11:39:50;;;;;;;4.35;1.83;;;23.20;97.00;;;;;;4999029;28;20129;-63
2023/08/04 11:42:16;;;;;;;7.45;2.50;;;23.20;96.30;;;;;;5006241;28;20096;-63
2023/08/04 11:44:45;;;;;;;3.05;1.52;;;23.20;97.00;;;;;;5006232;28;20743;-63
2023/08/04 11:47:13;;;;;;;4.68;1.65;;;23.20;97.20;;;;;;4995987;28;20125;-63
2023/08/04 11:49:40;;;;;;;7.75;1.80;;;23.20;97.60;;;;;;5011304;28;20034;-64
2023/08/04 11:52:10;;;;;;;2.72;1.70;;;23.20;96.80;;;;;;5017020;28;20068;-63
2023/08/04 11:54:36;;;;;;;2.38;1.35;;;23.20;97.10;;;;;;5011084;28;20038;-63
2023/08/04 11:57:02;;;;;;;3.92;1.27;;;23.20;96.70;;;;;;5007600;28;20041;-63
2023/08/04 11:59:28;;;;;;;4.40;1.55;;;23.30;96.10;;;;;;5010971;28;20038;-63
2023/08/04 12:02:06;;;;;;;4.35;1.60;;;23.40;95.60;;;;;;4999526;28;20652;-63
2023/08/04 12:04:32;;;;;;;2.25;1.20;;;23.50;96.10;;;;;;5007776;28;20743;-64
2023/08/04 12:07:00;;;;;;;4.47;1.33;;;23.60;95.30;;;;;;5010219;28;20025;-64
2023/08/04 12:09:26;;;;;;;4.45;1.60;;;23.60;94.40;;;;;;5014856;28;20034;-64
2023/08/04 12:11:52;;;;;;;3.80;1.63;;;23.70;94.50;;;;;;5014699;28;20041;-64
2023/08/04 12:14:19;;;;;;;5.18;1.80;;;23.70;94.80;;;;;;5012022;28;20418;-64
2023/08/04 12:17:05;;;;;;;4.10;1.33;;;23.70;94.90;;;;;;5001240;28;20084;-64
2023/08/04 12:19:32;;;;;;;4.97;1.58;;;23.80;94.80;;;;;;5007895;28;20036;-64
2023/08/04 12:22:03;;;;;;;6.18;1.23;;;24.00;94.60;;;;;;5008700;28;20056;-62
2023/08/04 12:24:30;;;;;;;3.33;1.30;;;24.00;93.50;;;;;;5007150;28;20046;-63
2023/08/04 12:26:56;;;;;;;2.10;1.35;;;24.00;94.20;;;;;;5015978;28;20037;-63
2023/08/04 12:29:23;;;;;;;1.90;1.10;;;24.00;93.70;;;;;;5010985;28;20731;-63
2023/08/04 12:31:50;;;;;;;2.40;1.08;;;24.00;94.50;;;;;;5005440;28;20066;-63
2023/08/04 12:34:16;;;;;;;2.20;1.02;;;24.00;94.30;;;;;;5008996;28;20036;-63
2023/08/04 12:36:42;;;;;;;5.32;1.30;;;24.00;94.50;;;;;;5010136;28;20041;-63
2023/08/04 12:39:10;;;;;;;3.63;1.30;;;23.90;93.80;;;;;;5008623;28;20108;-62
2023/08/04 12:41:36;;;;;;;1.08;0.90;;;23.90;93.40;;;;;;5002729;28;20038;-63
2023/08/04 12:44:02;;;;;;;4.55;1.30;;;23.90;93.80;;;;;;5017245;28;20036;-63
2023/08/04 12:46:28;;;;;;;6.00;1.33;;;23.90;94.40;;;;;;5011998;28;20034;-63